sensor_id;sensor_type;location;lat;lon;timestamp;P1;durP1;ratioP1;P2;durP2;ratioP2
52534;SDS011;38443;53.164;5.802;2023-04-09T00:03:05;51.22;;;28.52;;
52534;SDS011;38443;53.164;5.802;2023-04-09T00:07:56;55.33;;;29.77;;
52534;SDS011;38443;53.164;5.802;2023-04-09T00:12:46;61.67;;;31.73;;
52534;SDS011;38443;53.164;5.802;2023-04-09T00:15:11;57.50;;;30.40;;
52534;SDS011;38443;53.164;5.802;2023-04-09T00:17:37;53.35;;;29.48;;
52534;SDS011;38443;53.164;5.802;2023-04-09T00:20:02;60.22;;;31.38;;
52534;SDS011;38443;53.164;5.802;2023-04-09T00:22:28;55.75;;;31.05;;
52534;SDS011;38443;53.164;5.802;2023-04-09T00:27:19;57.13;;;29.80;;
52534;SDS011;38443;53.164;5.802;2023-04-09T00:29:45;59.53;;;34.80;;
52534;SDS011;38443;53.164;5.802;2023-04-09T00:32:11;64.68;;;31.85;;
52534;SDS011;38443;53.164;5.802;2023-04-09T00:37:02;55.60;;;30.08;;
52534;SDS011;38443;53.164;5.802;2023-04-09T00:41:57;67.35;;;33.30;;
52534;SDS011;38443;53.164;5.802;2023-04-09T00:44:23;59.80;;;31.63;;
52534;SDS011;38443;53.164;5.802;2023-04-09T00:49:14;58.58;;;32.08;;
52534;SDS011;38443;53.164;5.802;2023-04-09T00:51:40;59.25;;;34.25;;
52534;SDS011;38443;53.164;5.802;2023-04-09T00:54:06;68.55;;;35.55;;
52534;SDS011;38443;53.164;5.802;2023-04-09T00:58:57;63.47;;;34.03;;
52534;SDS011;38443;53.164;5.802;2023-04-09T01:01:23;69.32;;;35.90;;
52534;SDS011;38443;53.164;5.802;2023-04-09T01:06:17;66.63;;;33.95;;
52534;SDS011;38443;53.164;5.802;2023-04-09T01:12:00;68.97;;;34.38;;
52534;SDS011;38443;53.164;5.802;2023-04-09T01:14:52;73.15;;;36.25;;
52534;SDS011;38443;53.164;5.802;2023-04-09T01:17:25;67.30;;;33.92;;
52534;SDS011;38443;53.164;5.802;2023-04-09T01:20:00;67.28;;;36.83;;
52534;SDS011;38443;53.164;5.802;2023-04-09T01:22:52;67.03;;;36.17;;
52534;SDS011;38443;53.164;5.802;2023-04-09T01:25:43;61.70;;;33.75;;
52534;SDS011;38443;53.164;5.802;2023-04-09T01:28:18;64.30;;;33.55;;
52534;SDS011;38443;53.164;5.802;2023-04-09T01:30:59;65.88;;;34.13;;
52534;SDS011;38443;53.164;5.802;2023-04-09T01:33:28;66.00;;;34.03;;
52534;SDS011;38443;53.164;5.802;2023-04-09T01:35:54;62.53;;;32.70;;
52534;SDS011;38443;53.164;5.802;2023-04-09T01:38:21;71.38;;;34.97;;
52534;SDS011;38443;53.164;5.802;2023-04-09T01:40:48;64.25;;;34.13;;
52534;SDS011;38443;53.164;5.802;2023-04-09T01:43:13;68.68;;;34.35;;
52534;SDS011;38443;53.164;5.802;2023-04-09T01:48:05;64.10;;;32.75;;
52534;SDS011;38443;53.164;5.802;2023-04-09T01:50:32;68.18;;;33.28;;
52534;SDS011;38443;53.164;5.802;2023-04-09T01:55:23;67.88;;;33.65;;
52534;SDS011;38443;53.164;5.802;2023-04-09T02:00:14;61.28;;;30.83;;
52534;SDS011;38443;53.164;5.802;2023-04-09T02:03:04;64.10;;;32.15;;
52534;SDS011;38443;53.164;5.802;2023-04-09T02:05:30;67.47;;;33.78;;
52534;SDS011;38443;53.164;5.802;2023-04-09T02:08:11;64.32;;;33.17;;
52534;SDS011;38443;53.164;5.802;2023-04-09T02:10:40;65.03;;;33.08;;
52534;SDS011;38443;53.164;5.802;2023-04-09T02:13:17;60.80;;;32.38;;
52534;SDS011;38443;53.164;5.802;2023-04-09T02:15:43;58.28;;;31.50;;
52534;SDS011;38443;53.164;5.802;2023-04-09T02:18:23;64.68;;;30.45;;
52534;SDS011;38443;53.164;5.802;2023-04-09T02:20:51;66.03;;;31.73;;
52534;SDS011;38443;53.164;5.802;2023-04-09T02:23:17;61.92;;;29.10;;
52534;SDS011;38443;53.164;5.802;2023-04-09T02:28:08;63.35;;;28.55;;
52534;SDS011;38443;53.164;5.802;2023-04-09T02:32:59;63.83;;;29.80;;
52534;SDS011;38443;53.164;5.802;2023-04-09T02:35:24;65.57;;;32.55;;
52534;SDS011;38443;53.164;5.802;2023-04-09T02:40:14;66.73;;;31.00;;
52534;SDS011;38443;53.164;5.802;2023-04-09T02:45:05;69.37;;;29.83;;
52534;SDS011;38443;53.164;5.802;2023-04-09T02:47:31;78.97;;;32.22;;
52534;SDS011;38443;53.164;5.802;2023-04-09T02:52:21;69.37;;;30.77;;
52534;SDS011;38443;53.164;5.802;2023-04-09T02:54:48;69.72;;;30.83;;
52534;SDS011;38443;53.164;5.802;2023-04-09T02:59:39;71.40;;;31.35;;
52534;SDS011;38443;53.164;5.802;2023-04-09T03:04:30;67.82;;;31.50;;
52534;SDS011;38443;53.164;5.802;2023-04-09T03:06:55;80.95;;;32.28;;
52534;SDS011;38443;53.164;5.802;2023-04-09T03:11:45;78.37;;;33.73;;
52534;SDS011;38443;53.164;5.802;2023-04-09T03:16:36;76.77;;;31.97;;
52534;SDS011;38443;53.164;5.802;2023-04-09T03:21:27;77.47;;;33.67;;
52534;SDS011;38443;53.164;5.802;2023-04-09T03:26:17;82.17;;;35.23;;
52534;SDS011;38443;53.164;5.802;2023-04-09T03:31:08;73.03;;;32.40;;
52534;SDS011;38443;53.164;5.802;2023-04-09T03:36:00;71.65;;;32.83;;
52534;SDS011;38443;53.164;5.802;2023-04-09T03:40:50;77.30;;;32.17;;
52534;SDS011;38443;53.164;5.802;2023-04-09T03:45:41;83.50;;;34.27;;
52534;SDS011;38443;53.164;5.802;2023-04-09T03:50:36;85.70;;;35.73;;
52534;SDS011;38443;53.164;5.802;2023-04-09T03:53:05;75.43;;;33.15;;
52534;SDS011;38443;53.164;5.802;2023-04-09T03:57:55;74.67;;;33.23;;
52534;SDS011;38443;53.164;5.802;2023-04-09T04:02:46;73.13;;;33.15;;
52534;SDS011;38443;53.164;5.802;2023-04-09T04:05:11;76.25;;;33.35;;
52534;SDS011;38443;53.164;5.802;2023-04-09T04:10:03;75.28;;;31.02;;
52534;SDS011;38443;53.164;5.802;2023-04-09T04:12:30;67.53;;;31.35;;
52534;SDS011;38443;53.164;5.802;2023-04-09T04:17:20;77.00;;;33.83;;
52534;SDS011;38443;53.164;5.802;2023-04-09T04:22:11;76.63;;;31.60;;
52534;SDS011;38443;53.164;5.802;2023-04-09T04:27:02;71.87;;;32.83;;
52534;SDS011;38443;53.164;5.802;2023-04-09T04:29:28;73.85;;;31.13;;
52534;SDS011;38443;53.164;5.802;2023-04-09T04:34:18;66.70;;;31.33;;
52534;SDS011;38443;53.164;5.802;2023-04-09T04:39:09;61.42;;;27.77;;
52534;SDS011;38443;53.164;5.802;2023-04-09T04:43:59;56.30;;;24.92;;
52534;SDS011;38443;53.164;5.802;2023-04-09T04:48:50;48.50;;;24.23;;
52534;SDS011;38443;53.164;5.802;2023-04-09T04:53:41;55.50;;;24.70;;
52534;SDS011;38443;53.164;5.802;2023-04-09T04:56:06;56.95;;;25.33;;
52534;SDS011;38443;53.164;5.802;2023-04-09T04:58:36;49.97;;;23.80;;
52534;SDS011;38443;53.164;5.802;2023-04-09T05:03:27;55.47;;;26.17;;
52534;SDS011;38443;53.164;5.802;2023-04-09T05:08:17;54.97;;;23.80;;
52534;SDS011;38443;53.164;5.802;2023-04-09T05:13:09;56.40;;;25.02;;
52534;SDS011;38443;53.164;5.802;2023-04-09T05:18:04;55.03;;;24.95;;
52534;SDS011;38443;53.164;5.802;2023-04-09T05:22:54;54.95;;;24.08;;
52534;SDS011;38443;53.164;5.802;2023-04-09T05:25:20;55.92;;;24.83;;
52534;SDS011;38443;53.164;5.802;2023-04-09T05:30:10;52.60;;;24.83;;
52534;SDS011;38443;53.164;5.802;2023-04-09T05:35:01;54.88;;;23.42;;
52534;SDS011;38443;53.164;5.802;2023-04-09T05:39:51;52.37;;;25.37;;
52534;SDS011;38443;53.164;5.802;2023-04-09T05:44:42;50.07;;;23.40;;
52534;SDS011;38443;53.164;5.802;2023-04-09T05:49:32;44.77;;;21.40;;
52534;SDS011;38443;53.164;5.802;2023-04-09T05:54:23;49.85;;;23.10;;
52534;SDS011;38443;53.164;5.802;2023-04-09T05:56:49;52.95;;;25.27;;
52534;SDS011;38443;53.164;5.802;2023-04-09T05:59:16;43.10;;;21.70;;
52534;SDS011;38443;53.164;5.802;2023-04-09T06:04:07;48.33;;;22.53;;
52534;SDS011;38443;53.164;5.802;2023-04-09T06:08:58;52.22;;;24.15;;
52534;SDS011;38443;53.164;5.802;2023-04-09T06:13:48;47.63;;;22.17;;
52534;SDS011;38443;53.164;5.802;2023-04-09T06:18:40;53.47;;;22.92;;
52534;SDS011;38443;53.164;5.802;2023-04-09T06:21:07;44.95;;;21.60;;
52534;SDS011;38443;53.164;5.802;2023-04-09T06:23:33;45.40;;;22.70;;
52534;SDS011;38443;53.164;5.802;2023-04-09T06:26:00;47.45;;;22.23;;
52534;SDS011;38443;53.164;5.802;2023-04-09T06:30:52;42.20;;;21.27;;
52534;SDS011;38443;53.164;5.802;2023-04-09T06:33:19;42.58;;;21.63;;
52534;SDS011;38443;53.164;5.802;2023-04-09T06:38:09;39.65;;;21.55;;
52534;SDS011;38443;53.164;5.802;2023-04-09T06:43:02;42.97;;;20.13;;
52534;SDS011;38443;53.164;5.802;2023-04-09T06:47:52;46.05;;;21.58;;
52534;SDS011;38443;53.164;5.802;2023-04-09T06:50:18;40.15;;;20.67;;
52534;SDS011;38443;53.164;5.802;2023-04-09T06:55:08;43.13;;;20.57;;
52534;SDS011;38443;53.164;5.802;2023-04-09T06:59:59;34.67;;;18.15;;
52534;SDS011;38443;53.164;5.802;2023-04-09T07:04:50;39.97;;;19.60;;
52534;SDS011;38443;53.164;5.802;2023-04-09T07:09:41;37.47;;;19.50;;
52534;SDS011;38443;53.164;5.802;2023-04-09T07:14:32;35.40;;;19.40;;
52534;SDS011;38443;53.164;5.802;2023-04-09T07:19:22;35.33;;;19.33;;
52534;SDS011;38443;53.164;5.802;2023-04-09T07:24:13;38.28;;;19.67;;
52534;SDS011;38443;53.164;5.802;2023-04-09T07:29:03;39.03;;;20.40;;
52534;SDS011;38443;53.164;5.802;2023-04-09T07:33:54;39.58;;;19.63;;
52534;SDS011;38443;53.164;5.802;2023-04-09T07:38:45;38.38;;;20.00;;
52534;SDS011;38443;53.164;5.802;2023-04-09T07:43:35;40.45;;;20.80;;
52534;SDS011;38443;53.164;5.802;2023-04-09T07:48:26;39.25;;;20.80;;
52534;SDS011;38443;53.164;5.802;2023-04-09T07:53:17;43.97;;;20.40;;
52534;SDS011;38443;53.164;5.802;2023-04-09T07:58:07;43.23;;;20.50;;
52534;SDS011;38443;53.164;5.802;2023-04-09T08:02:58;37.90;;;20.47;;
52534;SDS011;38443;53.164;5.802;2023-04-09T08:07:52;39.00;;;21.13;;
52534;SDS011;38443;53.164;5.802;2023-04-09T08:10:17;43.85;;;21.20;;
52534;SDS011;38443;53.164;5.802;2023-04-09T08:15:08;40.53;;;20.98;;
52534;SDS011;38443;53.164;5.802;2023-04-09T08:20:03;45.95;;;23.38;;
52534;SDS011;38443;53.164;5.802;2023-04-09T08:22:29;42.00;;;22.25;;
52534;SDS011;38443;53.164;5.802;2023-04-09T08:27:21;42.22;;;20.45;;
52534;SDS011;38443;53.164;5.802;2023-04-09T08:32:11;47.53;;;22.40;;
52534;SDS011;38443;53.164;5.802;2023-04-09T08:37:02;41.43;;;20.97;;
52534;SDS011;38443;53.164;5.802;2023-04-09T08:41:53;40.67;;;21.38;;
52534;SDS011;38443;53.164;5.802;2023-04-09T08:44:24;40.63;;;21.40;;
52534;SDS011;38443;53.164;5.802;2023-04-09T08:46:50;47.65;;;23.13;;
52534;SDS011;38443;53.164;5.802;2023-04-09T08:51:44;46.23;;;23.67;;
52534;SDS011;38443;53.164;5.802;2023-04-09T08:54:13;46.55;;;22.38;;
52534;SDS011;38443;53.164;5.802;2023-04-09T08:56:41;48.80;;;23.15;;
52534;SDS011;38443;53.164;5.802;2023-04-09T09:01:33;46.40;;;21.75;;
52534;SDS011;38443;53.164;5.802;2023-04-09T09:03:59;50.38;;;23.08;;
52534;SDS011;38443;53.164;5.802;2023-04-09T09:06:33;46.80;;;21.23;;
52534;SDS011;38443;53.164;5.802;2023-04-09T09:09:15;44.33;;;22.20;;
52534;SDS011;38443;53.164;5.802;2023-04-09T09:11:45;41.75;;;22.45;;
52534;SDS011;38443;53.164;5.802;2023-04-09T09:14:15;45.17;;;22.70;;
52534;SDS011;38443;53.164;5.802;2023-04-09T09:16:43;49.15;;;22.95;;
52534;SDS011;38443;53.164;5.802;2023-04-09T09:19:28;44.30;;;22.95;;
52534;SDS011;38443;53.164;5.802;2023-04-09T09:22:06;41.10;;;22.85;;
52534;SDS011;38443;53.164;5.802;2023-04-09T09:24:32;42.75;;;22.77;;
52534;SDS011;38443;53.164;5.802;2023-04-09T09:29:23;47.00;;;25.27;;
52534;SDS011;38443;53.164;5.802;2023-04-09T09:31:50;43.45;;;21.52;;
52534;SDS011;38443;53.164;5.802;2023-04-09T09:34:17;45.28;;;24.65;;
52534;SDS011;38443;53.164;5.802;2023-04-09T09:36:43;45.53;;;22.58;;
52534;SDS011;38443;53.164;5.802;2023-04-09T09:39:10;44.95;;;23.00;;
52534;SDS011;38443;53.164;5.802;2023-04-09T09:41:37;44.15;;;22.23;;
52534;SDS011;38443;53.164;5.802;2023-04-09T09:44:03;44.10;;;21.60;;
52534;SDS011;38443;53.164;5.802;2023-04-09T09:46:33;47.90;;;24.35;;
52534;SDS011;38443;53.164;5.802;2023-04-09T09:49:00;42.00;;;22.42;;
52534;SDS011;38443;53.164;5.802;2023-04-09T09:53:54;43.92;;;21.63;;
52534;SDS011;38443;53.164;5.802;2023-04-09T09:56:24;44.33;;;21.38;;
52534;SDS011;38443;53.164;5.802;2023-04-09T09:59:05;44.38;;;21.95;;
52534;SDS011;38443;53.164;5.802;2023-04-09T10:01:47;43.72;;;21.27;;
52534;SDS011;38443;53.164;5.802;2023-04-09T10:04:20;44.00;;;22.17;;
52534;SDS011;38443;53.164;5.802;2023-04-09T10:06:47;41.47;;;20.98;;
52534;SDS011;38443;53.164;5.802;2023-04-09T10:09:14;44.83;;;22.88;;
52534;SDS011;38443;53.164;5.802;2023-04-09T10:14:09;42.13;;;20.70;;
52534;SDS011;38443;53.164;5.802;2023-04-09T10:16:36;41.92;;;21.08;;
52534;SDS011;38443;53.164;5.802;2023-04-09T10:23:56;39.97;;;20.80;;
52534;SDS011;38443;53.164;5.802;2023-04-09T10:29:07;37.13;;;19.63;;
52534;SDS011;38443;53.164;5.802;2023-04-09T10:34:22;41.58;;;21.15;;
52534;SDS011;38443;53.164;5.802;2023-04-09T10:36:51;42.15;;;20.50;;
52534;SDS011;38443;53.164;5.802;2023-04-09T10:39:19;34.72;;;20.52;;
52534;SDS011;38443;53.164;5.802;2023-04-09T10:46:45;37.78;;;19.38;;
52534;SDS011;38443;53.164;5.802;2023-04-09T10:51:37;36.77;;;19.83;;
52534;SDS011;38443;53.164;5.802;2023-04-09T10:54:49;34.67;;;18.30;;
52534;SDS011;38443;53.164;5.802;2023-04-09T10:59:40;37.35;;;20.10;;
52534;SDS011;38443;53.164;5.802;2023-04-09T11:05:06;38.30;;;19.88;;
52534;SDS011;38443;53.164;5.802;2023-04-09T11:07:39;36.07;;;18.27;;
52534;SDS011;38443;53.164;5.802;2023-04-09T11:10:08;37.97;;;18.63;;
52534;SDS011;38443;53.164;5.802;2023-04-09T11:14:59;35.33;;;18.67;;
52534;SDS011;38443;53.164;5.802;2023-04-09T11:17:24;32.22;;;17.88;;
52534;SDS011;38443;53.164;5.802;2023-04-09T11:22:15;36.88;;;19.30;;
52534;SDS011;38443;53.164;5.802;2023-04-09T11:24:41;34.78;;;18.90;;
52534;SDS011;38443;53.164;5.802;2023-04-09T11:27:07;37.13;;;19.35;;
52534;SDS011;38443;53.164;5.802;2023-04-09T11:29:36;32.28;;;18.30;;
52534;SDS011;38443;53.164;5.802;2023-04-09T11:32:01;32.33;;;17.92;;
52534;SDS011;38443;53.164;5.802;2023-04-09T11:34:29;32.95;;;18.17;;
52534;SDS011;38443;53.164;5.802;2023-04-09T11:36:55;34.63;;;20.15;;
52534;SDS011;38443;53.164;5.802;2023-04-09T11:39:21;31.55;;;17.98;;
52534;SDS011;38443;53.164;5.802;2023-04-09T11:41:46;33.47;;;18.25;;
52534;SDS011;38443;53.164;5.802;2023-04-09T11:46:37;31.35;;;17.50;;
52534;SDS011;38443;53.164;5.802;2023-04-09T11:49:03;33.97;;;19.20;;
52534;SDS011;38443;53.164;5.802;2023-04-09T11:51:29;31.38;;;17.95;;
52534;SDS011;38443;53.164;5.802;2023-04-09T11:54:00;30.77;;;17.98;;
52534;SDS011;38443;53.164;5.802;2023-04-09T11:56:28;32.08;;;18.65;;
52534;SDS011;38443;53.164;5.802;2023-04-09T11:58:55;31.40;;;18.80;;
52534;SDS011;38443;53.164;5.802;2023-04-09T12:01:20;33.40;;;19.15;;
52534;SDS011;38443;53.164;5.802;2023-04-09T12:03:50;30.38;;;16.98;;
52534;SDS011;38443;53.164;5.802;2023-04-09T12:06:17;29.05;;;17.52;;
52534;SDS011;38443;53.164;5.802;2023-04-09T12:08:45;31.08;;;17.85;;
52534;SDS011;38443;53.164;5.802;2023-04-09T12:11:11;33.22;;;17.58;;
52534;SDS011;38443;53.164;5.802;2023-04-09T12:13:38;31.77;;;18.45;;
52534;SDS011;38443;53.164;5.802;2023-04-09T12:16:08;30.30;;;17.73;;
52534;SDS011;38443;53.164;5.802;2023-04-09T12:18:35;30.80;;;18.35;;
52534;SDS011;38443;53.164;5.802;2023-04-09T12:21:01;30.50;;;17.83;;
52534;SDS011;38443;53.164;5.802;2023-04-09T12:23:27;28.95;;;17.67;;
52534;SDS011;38443;53.164;5.802;2023-04-09T12:25:52;26.73;;;17.10;;
52534;SDS011;38443;53.164;5.802;2023-04-09T12:28:19;29.10;;;16.40;;
52534;SDS011;38443;53.164;5.802;2023-04-09T12:30:44;29.25;;;17.98;;
52534;SDS011;38443;53.164;5.802;2023-04-09T12:33:10;29.42;;;16.95;;
52534;SDS011;38443;53.164;5.802;2023-04-09T12:35:35;27.80;;;16.38;;
52534;SDS011;38443;53.164;5.802;2023-04-09T12:38:01;29.90;;;16.00;;
52534;SDS011;38443;53.164;5.802;2023-04-09T12:40:28;31.70;;;17.00;;
52534;SDS011;38443;53.164;5.802;2023-04-09T12:42:54;26.83;;;17.50;;
52534;SDS011;38443;53.164;5.802;2023-04-09T12:45:20;29.50;;;16.85;;
52534;SDS011;38443;53.164;5.802;2023-04-09T12:47:45;31.25;;;18.13;;
52534;SDS011;38443;53.164;5.802;2023-04-09T12:50:11;29.35;;;17.13;;
52534;SDS011;38443;53.164;5.802;2023-04-09T12:52:38;24.48;;;15.18;;
52534;SDS011;38443;53.164;5.802;2023-04-09T12:55:04;26.92;;;16.00;;
52534;SDS011;38443;53.164;5.802;2023-04-09T12:57:30;26.33;;;15.35;;
52534;SDS011;38443;53.164;5.802;2023-04-09T12:59:56;28.85;;;17.23;;
52534;SDS011;38443;53.164;5.802;2023-04-09T13:02:22;25.17;;;15.38;;
52534;SDS011;38443;53.164;5.802;2023-04-09T13:04:47;28.58;;;16.20;;
52534;SDS011;38443;53.164;5.802;2023-04-09T13:07:14;24.52;;;14.85;;
52534;SDS011;38443;53.164;5.802;2023-04-09T13:09:41;27.42;;;16.55;;
52534;SDS011;38443;53.164;5.802;2023-04-09T13:12:06;24.73;;;15.35;;
52534;SDS011;38443;53.164;5.802;2023-04-09T13:14:32;25.42;;;14.85;;
52534;SDS011;38443;53.164;5.802;2023-04-09T13:16:57;23.60;;;15.20;;
52534;SDS011;38443;53.164;5.802;2023-04-09T13:19:23;26.65;;;15.45;;
52534;SDS011;38443;53.164;5.802;2023-04-09T13:21:48;27.13;;;15.55;;
52534;SDS011;38443;53.164;5.802;2023-04-09T13:24:13;25.33;;;16.13;;
52534;SDS011;38443;53.164;5.802;2023-04-09T13:26:39;27.80;;;16.98;;
52534;SDS011;38443;53.164;5.802;2023-04-09T13:29:05;28.83;;;15.13;;
52534;SDS011;38443;53.164;5.802;2023-04-09T13:31:30;24.00;;;14.95;;
52534;SDS011;38443;53.164;5.802;2023-04-09T13:33:56;24.27;;;14.80;;
52534;SDS011;38443;53.164;5.802;2023-04-09T13:36:21;24.48;;;15.32;;
52534;SDS011;38443;53.164;5.802;2023-04-09T13:38:46;22.42;;;14.98;;
52534;SDS011;38443;53.164;5.802;2023-04-09T13:41:12;22.48;;;15.05;;
52534;SDS011;38443;53.164;5.802;2023-04-09T13:43:39;23.25;;;14.20;;
52534;SDS011;38443;53.164;5.802;2023-04-09T13:46:04;26.45;;;17.17;;
52534;SDS011;38443;53.164;5.802;2023-04-09T13:48:30;25.00;;;16.17;;
52534;SDS011;38443;53.164;5.802;2023-04-09T13:50:55;22.15;;;14.70;;
52534;SDS011;38443;53.164;5.802;2023-04-09T13:53:21;36.50;;;15.07;;
52534;SDS011;38443;53.164;5.802;2023-04-09T13:55:48;22.77;;;15.18;;
52534;SDS011;38443;53.164;5.802;2023-04-09T13:58:13;24.40;;;16.00;;
52534;SDS011;38443;53.164;5.802;2023-04-09T14:00:38;21.73;;;15.07;;
52534;SDS011;38443;53.164;5.802;2023-04-09T14:03:04;21.98;;;15.35;;
52534;SDS011;38443;53.164;5.802;2023-04-09T14:05:29;22.08;;;14.88;;
52534;SDS011;38443;53.164;5.802;2023-04-09T14:07:56;22.65;;;14.38;;
52534;SDS011;38443;53.164;5.802;2023-04-09T14:10:22;21.90;;;14.77;;
52534;SDS011;38443;53.164;5.802;2023-04-09T14:12:47;23.17;;;15.20;;
52534;SDS011;38443;53.164;5.802;2023-04-09T14:15:13;22.13;;;15.20;;
52534;SDS011;38443;53.164;5.802;2023-04-09T14:17:38;24.70;;;15.18;;
52534;SDS011;38443;53.164;5.802;2023-04-09T14:20:04;20.70;;;14.25;;
52534;SDS011;38443;53.164;5.802;2023-04-09T14:22:30;22.60;;;15.68;;
52534;SDS011;38443;53.164;5.802;2023-04-09T14:24:56;24.50;;;15.27;;
52534;SDS011;38443;53.164;5.802;2023-04-09T14:27:21;21.73;;;14.85;;
52534;SDS011;38443;53.164;5.802;2023-04-09T14:29:46;23.35;;;14.93;;
52534;SDS011;38443;53.164;5.802;2023-04-09T14:32:12;22.40;;;14.48;;
52534;SDS011;38443;53.164;5.802;2023-04-09T14:34:37;25.23;;;15.93;;
52534;SDS011;38443;53.164;5.802;2023-04-09T14:37:02;21.55;;;15.05;;
52534;SDS011;38443;53.164;5.802;2023-04-09T14:39:28;22.25;;;14.73;;
52534;SDS011;38443;53.164;5.802;2023-04-09T14:41:53;24.10;;;15.85;;
52534;SDS011;38443;53.164;5.802;2023-04-09T14:44:21;25.33;;;15.75;;
52534;SDS011;38443;53.164;5.802;2023-04-09T14:46:46;23.85;;;15.13;;
52534;SDS011;38443;53.164;5.802;2023-04-09T14:49:11;21.23;;;15.38;;
52534;SDS011;38443;53.164;5.802;2023-04-09T14:51:37;22.42;;;14.98;;
52534;SDS011;38443;53.164;5.802;2023-04-09T14:54:02;22.10;;;14.65;;
52534;SDS011;38443;53.164;5.802;2023-04-09T14:56:27;23.48;;;15.60;;
52534;SDS011;38443;53.164;5.802;2023-04-09T14:58:53;23.63;;;14.25;;
52534;SDS011;38443;53.164;5.802;2023-04-09T15:01:18;22.70;;;14.85;;
52534;SDS011;38443;53.164;5.802;2023-04-09T15:03:43;20.25;;;13.75;;
52534;SDS011;38443;53.164;5.802;2023-04-09T15:06:12;21.33;;;14.35;;
52534;SDS011;38443;53.164;5.802;2023-04-09T15:08:37;21.38;;;13.82;;
52534;SDS011;38443;53.164;5.802;2023-04-09T15:11:03;20.90;;;14.07;;
52534;SDS011;38443;53.164;5.802;2023-04-09T15:13:28;21.80;;;13.65;;
52534;SDS011;38443;53.164;5.802;2023-04-09T15:15:54;21.00;;;15.05;;
52534;SDS011;38443;53.164;5.802;2023-04-09T15:18:19;23.80;;;14.48;;
52534;SDS011;38443;53.164;5.802;2023-04-09T15:20:45;23.15;;;14.23;;
52534;SDS011;38443;53.164;5.802;2023-04-09T15:23:10;24.38;;;14.70;;
52534;SDS011;38443;53.164;5.802;2023-04-09T15:25:36;18.15;;;12.27;;
52534;SDS011;38443;53.164;5.802;2023-04-09T15:28:01;19.77;;;11.32;;
52534;SDS011;38443;53.164;5.802;2023-04-09T15:30:27;20.55;;;13.05;;
52534;SDS011;38443;53.164;5.802;2023-04-09T15:32:52;20.40;;;12.63;;
52534;SDS011;38443;53.164;5.802;2023-04-09T15:35:18;19.65;;;13.07;;
52534;SDS011;38443;53.164;5.802;2023-04-09T15:37:49;19.92;;;11.80;;
52534;SDS011;38443;53.164;5.802;2023-04-09T15:40:15;18.83;;;12.18;;
52534;SDS011;38443;53.164;5.802;2023-04-09T15:42:41;19.13;;;12.13;;
52534;SDS011;38443;53.164;5.802;2023-04-09T15:45:06;18.13;;;12.07;;
52534;SDS011;38443;53.164;5.802;2023-04-09T15:47:32;18.23;;;11.50;;
52534;SDS011;38443;53.164;5.802;2023-04-09T15:49:57;19.65;;;12.00;;
52534;SDS011;38443;53.164;5.802;2023-04-09T15:52:23;19.25;;;11.75;;
52534;SDS011;38443;53.164;5.802;2023-04-09T15:54:48;19.27;;;12.25;;
52534;SDS011;38443;53.164;5.802;2023-04-09T15:57:14;17.73;;;11.52;;
52534;SDS011;38443;53.164;5.802;2023-04-09T15:59:39;19.88;;;11.57;;
52534;SDS011;38443;53.164;5.802;2023-04-09T16:02:04;20.95;;;12.40;;
52534;SDS011;38443;53.164;5.802;2023-04-09T16:04:30;19.50;;;11.05;;
52534;SDS011;38443;53.164;5.802;2023-04-09T16:06:55;18.30;;;11.57;;
52534;SDS011;38443;53.164;5.802;2023-04-09T16:09:21;16.83;;;11.98;;
52534;SDS011;38443;53.164;5.802;2023-04-09T16:11:47;18.90;;;11.68;;
52534;SDS011;38443;53.164;5.802;2023-04-09T16:14:12;22.00;;;13.65;;
52534;SDS011;38443;53.164;5.802;2023-04-09T16:16:38;22.83;;;13.73;;
52534;SDS011;38443;53.164;5.802;2023-04-09T16:19:03;20.20;;;12.50;;
52534;SDS011;38443;53.164;5.802;2023-04-09T16:21:28;19.38;;;11.75;;
52534;SDS011;38443;53.164;5.802;2023-04-09T16:23:54;19.27;;;11.80;;
52534;SDS011;38443;53.164;5.802;2023-04-09T16:26:19;18.80;;;10.35;;
52534;SDS011;38443;53.164;5.802;2023-04-09T16:28:45;18.25;;;11.30;;
52534;SDS011;38443;53.164;5.802;2023-04-09T16:31:10;18.85;;;10.77;;
52534;SDS011;38443;53.164;5.802;2023-04-09T16:33:35;15.98;;;11.02;;
52534;SDS011;38443;53.164;5.802;2023-04-09T16:36:01;20.00;;;12.32;;
52534;SDS011;38443;53.164;5.802;2023-04-09T16:38:26;17.08;;;10.85;;
52534;SDS011;38443;53.164;5.802;2023-04-09T16:40:53;20.25;;;12.93;;
52534;SDS011;38443;53.164;5.802;2023-04-09T16:43:18;17.35;;;11.77;;
52534;SDS011;38443;53.164;5.802;2023-04-09T16:45:43;16.55;;;11.13;;
52534;SDS011;38443;53.164;5.802;2023-04-09T16:48:09;18.75;;;11.38;;
52534;SDS011;38443;53.164;5.802;2023-04-09T16:50:36;17.45;;;11.77;;
52534;SDS011;38443;53.164;5.802;2023-04-09T16:53:02;17.58;;;10.43;;
52534;SDS011;38443;53.164;5.802;2023-04-09T16:55:28;14.50;;;9.98;;
52534;SDS011;38443;53.164;5.802;2023-04-09T16:57:53;24.10;;;11.45;;
52534;SDS011;38443;53.164;5.802;2023-04-09T17:00:20;18.42;;;11.23;;
52534;SDS011;38443;53.164;5.802;2023-04-09T17:02:46;16.80;;;10.13;;
52534;SDS011;38443;53.164;5.802;2023-04-09T17:05:11;16.38;;;9.52;;
52534;SDS011;38443;53.164;5.802;2023-04-09T17:07:37;16.63;;;10.48;;
52534;SDS011;38443;53.164;5.802;2023-04-09T17:10:02;14.85;;;9.65;;
52534;SDS011;38443;53.164;5.802;2023-04-09T17:12:28;15.32;;;10.02;;
52534;SDS011;38443;53.164;5.802;2023-04-09T17:14:53;14.98;;;9.43;;
52534;SDS011;38443;53.164;5.802;2023-04-09T17:17:18;15.52;;;10.40;;
52534;SDS011;38443;53.164;5.802;2023-04-09T17:19:44;16.80;;;10.00;;
52534;SDS011;38443;53.164;5.802;2023-04-09T17:22:09;15.63;;;10.00;;
52534;SDS011;38443;53.164;5.802;2023-04-09T17:24:34;18.77;;;11.90;;
52534;SDS011;38443;53.164;5.802;2023-04-09T17:27:01;16.33;;;10.52;;
52534;SDS011;38443;53.164;5.802;2023-04-09T17:29:28;15.40;;;10.10;;
52534;SDS011;38443;53.164;5.802;2023-04-09T17:31:54;14.48;;;9.70;;
52534;SDS011;38443;53.164;5.802;2023-04-09T17:34:19;16.05;;;9.98;;
52534;SDS011;38443;53.164;5.802;2023-04-09T17:36:45;15.40;;;9.85;;
52534;SDS011;38443;53.164;5.802;2023-04-09T17:39:19;15.88;;;10.07;;
52534;SDS011;38443;53.164;5.802;2023-04-09T17:41:45;15.25;;;10.45;;
52534;SDS011;38443;53.164;5.802;2023-04-09T17:44:11;15.85;;;10.85;;
52534;SDS011;38443;53.164;5.802;2023-04-09T17:46:36;15.13;;;9.55;;
52534;SDS011;38443;53.164;5.802;2023-04-09T17:49:02;15.82;;;9.10;;
52534;SDS011;38443;53.164;5.802;2023-04-09T17:51:28;15.65;;;9.43;;
52534;SDS011;38443;53.164;5.802;2023-04-09T17:53:53;15.00;;;9.32;;
52534;SDS011;38443;53.164;5.802;2023-04-09T17:56:18;14.85;;;9.30;;
52534;SDS011;38443;53.164;5.802;2023-04-09T17:58:46;18.10;;;10.30;;
52534;SDS011;38443;53.164;5.802;2023-04-09T18:01:11;16.05;;;9.45;;
52534;SDS011;38443;53.164;5.802;2023-04-09T18:03:37;15.23;;;8.77;;
52534;SDS011;38443;53.164;5.802;2023-04-09T18:06:03;17.10;;;11.18;;
52534;SDS011;38443;53.164;5.802;2023-04-09T18:08:31;15.90;;;9.77;;
52534;SDS011;38443;53.164;5.802;2023-04-09T18:10:56;20.08;;;12.88;;
52534;SDS011;38443;53.164;5.802;2023-04-09T18:13:22;18.35;;;12.30;;
52534;SDS011;38443;53.164;5.802;2023-04-09T18:15:47;18.48;;;12.95;;
52534;SDS011;38443;53.164;5.802;2023-04-09T18:18:13;19.20;;;12.50;;